Time;durP1;ratioP1;P1;durP2;ratioP2;P2;SDS_P1;SDS_P2;PMS_P1;PMS_P2;Temp;Humidity;BMP_temperature;BMP_pressure;BME280_temperature;BME280_humidity;BME280_pressure;Samples;Min_cycle;Max_cycle;Signal;HPM_P1;HPM_P2
2023/04/22 00:00:25;;;;;;;6.30;4.00;;;13.60;73.20;;;;;;5034779;28;20588;-77
2023/04/22 00:02:51;;;;;;;7.30;3.97;;;13.50;73.30;;;;;;5052762;28;20180;-75
2023/04/22 00:05:17;;;;;;;7.60;3.83;;;13.50;73.20;;;;;;5051406;28;20423;-78
2023/04/22 00:07:43;;;;;;;7.83;3.50;;;13.50;72.90;;;;;;5032571;28;20204;-79
2023/04/22 00:10:12;;;;;;;8.17;4.00;;;13.50;72.40;;;;;;5050946;28;20523;-77
2023/04/22 00:12:37;;;;;;;7.00;3.90;;;13.40;72.00;;;;;;5052904;28;20184;-76
2023/04/22 00:15:03;;;;;;;8.43;4.20;;;13.40;72.10;;;;;;5053609;28;20426;-77
2023/04/22 00:17:29;;;;;;;5.20;3.60;;;13.40;72.40;;;;;;5039573;28;20299;-76
2023/04/22 00:19:55;;;;;;;4.73;2.97;;;13.40;72.40;;;;;;5060764;28;20471;-78
2023/04/22 00:22:20;;;;;;;8.73;3.40;;;13.40;72.40;;;;;;5050882;28;20192;-78
2023/04/22 00:24:46;;;;;;;7.07;3.80;;;13.40;72.30;;;;;;5050076;28;20280;-79
2023/04/22 00:27:11;;;;;;;5.37;3.80;;;13.30;72.40;;;;;;5045735;28;20628;-78
2023/04/22 00:29:38;;;;;;;5.10;3.20;;;13.30;72.30;;;;;;5052442;28;20709;-78
2023/04/22 00:32:03;;;;;;;6.17;3.47;;;13.30;72.10;;;;;;5049060;28;20186;-76
2023/04/22 00:34:29;;;;;;;6.20;3.33;;;13.30;72.40;;;;;;5051977;28;20429;-77
2023/04/22 00:36:55;;;;;;;8.27;4.40;;;13.30;72.60;;;;;;5039872;28;20212;-77
2023/04/22 00:39:21;;;;;;;8.00;3.80;;;13.30;72.90;;;;;;5051563;28;20188;-76
2023/04/22 00:41:47;;;;;;;7.37;4.23;;;13.30;73.00;;;;;;5034989;28;20423;-75
2023/04/22 00:44:13;;;;;;;6.97;3.57;;;13.30;73.00;;;;;;5052206;28;20201;-78
2023/04/22 00:46:38;;;;;;;6.57;3.97;;;13.30;73.00;;;;;;5031615;28;20555;-78
2023/04/22 00:49:05;;;;;;;7.30;3.87;;;13.20;73.30;;;;;;5051316;28;20232;-77
2023/04/22 00:51:31;;;;;;;6.03;3.87;;;13.20;73.30;;;;;;5052591;28;20181;-76
2023/04/22 00:53:57;;;;;;;6.77;3.80;;;13.20;73.30;;;;;;5051506;28;20422;-77
2023/04/22 00:56:26;;;;;;;5.80;4.07;;;13.20;73.00;;;;;;5032669;28;20419;-76
2023/04/22 00:58:53;;;;;;;6.63;3.93;;;13.10;72.70;;;;;;5049129;28;20430;-77
2023/04/22 01:01:20;;;;;;;7.27;4.03;;;13.10;73.20;;;;;;5050521;28;21037;-77
2023/04/22 01:03:48;;;;;;;7.80;3.90;;;13.20;73.30;;;;;;5051540;28;20512;-78
2023/04/22 01:06:15;;;;;;;7.70;4.10;;;13.10;73.50;;;;;;5052027;28;20427;-77
2023/04/22 01:08:41;;;;;;;5.63;4.20;;;13.10;73.60;;;;;;5047041;28;20478;-77
2023/04/22 01:11:06;;;;;;;5.73;3.93;;;13.10;73.50;;;;;;5052308;28;20435;-76
2023/04/22 01:13:32;;;;;;;5.57;4.20;;;13.10;73.50;;;;;;5048581;28;20423;-77
2023/04/22 01:16:00;;;;;;;7.50;4.10;;;13.20;73.60;;;;;;5034207;28;20183;-77
2023/04/22 01:18:25;;;;;;;6.40;4.50;;;13.20;73.60;;;;;;5047799;28;20258;-75
2023/04/22 01:20:51;;;;;;;8.63;5.10;;;13.10;73.70;;;;;;5056243;28;20423;-77
2023/04/22 01:23:21;;;;;;;8.93;4.80;;;13.20;73.70;;;;;;5056320;28;20678;-77
2023/04/22 01:25:48;;;;;;;10.40;5.40;;;13.20;73.70;;;;;;5055777;28;20431;-78
2023/04/22 01:28:15;;;;;;;8.57;5.50;;;13.10;74.00;;;;;;5039245;28;20479;-78
2023/04/22 01:30:42;;;;;;;8.47;5.10;;;13.10;74.20;;;;;;5057435;28;20415;-78
2023/04/22 01:33:11;;;;;;;7.17;5.30;;;13.10;74.20;;;;;;5048705;28;20498;-77
2023/04/22 01:35:37;;;;;;;8.53;5.07;;;13.10;74.00;;;;;;5051755;28;20411;-78
2023/04/22 01:38:05;;;;;;;7.73;5.40;;;13.00;74.00;;;;;;5044448;28;20471;-79
2023/04/22 01:40:31;;;;;;;10.40;5.10;;;13.00;74.30;;;;;;5033804;28;20430;-78
2023/04/22 01:43:01;;;;;;;7.93;5.33;;;13.00;74.30;;;;;;5035007;28;21187;-78
2023/04/22 01:45:28;;;;;;;6.80;4.80;;;13.00;74.20;;;;;;5053765;28;20794;-77
2023/04/22 01:47:53;;;;;;;10.47;5.60;;;13.00;74.20;;;;;;5056774;28;20447;-78
2023/04/22 01:50:20;;;;;;;9.50;5.60;;;13.10;74.50;;;;;;5054669;28;20427;-78
2023/04/22 01:52:47;;;;;;;9.73;5.60;;;13.10;74.60;;;;;;5059480;28;20173;-78
2023/04/22 01:55:13;;;;;;;8.80;5.70;;;13.10;74.90;;;;;;5058395;28;20415;-78
2023/04/22 01:57:39;;;;;;;9.00;5.10;;;13.00;74.30;;;;;;5032905;28;20857;-79
2023/04/22 02:00:07;;;;;;;9.13;5.90;;;13.00;74.90;;;;;;5034270;28;20196;-79
2023/04/22 02:02:32;;;;;;;9.20;5.90;;;13.00;75.20;;;;;;5051851;28;20216;-78
2023/04/22 02:04:58;;;;;;;10.07;5.50;;;13.10;75.40;;;;;;5050823;28;20458;-77
2023/04/22 02:07:24;;;;;;;11.00;5.60;;;13.10;75.50;;;;;;5046027;28;20204;-78
2023/04/22 02:09:51;;;;;;;8.50;5.53;;;13.00;75.70;;;;;;5048644;28;20576;-78
2023/04/22 02:12:17;;;;;;;7.40;5.13;;;13.00;75.80;;;;;;5049530;28;20172;-77
2023/04/22 02:14:42;;;;;;;7.87;5.40;;;13.00;75.80;;;;;;5032977;28;20426;-79
2023/04/22 02:17:08;;;;;;;9.27;5.63;;;13.00;75.90;;;;;;5049278;28;20607;-78
2023/04/22 02:19:34;;;;;;;9.53;5.77;;;12.90;75.90;;;;;;5055369;28;20180;-78
2023/04/22 02:21:59;;;;;;;8.97;6.17;;;12.90;76.10;;;;;;5060926;28;20261;-78
2023/04/22 02:24:25;;;;;;;7.47;5.57;;;12.80;76.70;;;;;;5053218;28;20195;-76
2023/04/22 02:26:51;;;;;;;9.57;5.63;;;12.80;77.10;;;;;;5040302;28;20271;-76
2023/04/22 02:29:16;;;;;;;10.83;6.10;;;12.80;77.40;;;;;;5040667;28;20204;-77
2023/04/22 02:31:42;;;;;;;8.13;5.43;;;12.80;78.00;;;;;;5050172;28;20272;-77
2023/04/22 02:34:08;;;;;;;9.30;6.60;;;12.70;78.10;;;;;;5050574;28;20177;-77
2023/04/22 02:36:33;;;;;;;9.93;6.70;;;12.70;78.40;;;;;;5049656;28;20234;-77
2023/04/22 02:39:02;;;;;;;11.17;6.57;;;12.70;78.60;;;;;;5050863;28;20188;-78
2023/04/22 02:41:28;;;;;;;12.23;6.90;;;12.70;78.60;;;;;;5032384;28;20189;-75
2023/04/22 02:43:53;;;;;;;9.50;6.43;;;12.80;78.40;;;;;;5049999;28;20446;-78
2023/04/22 02:46:19;;;;;;;8.50;5.67;;;12.70;78.10;;;;;;5049969;28;20200;-79
2023/04/22 02:48:44;;;;;;;8.77;6.07;;;12.70;77.80;;;;;;5042983;28;20216;-78
2023/04/22 02:51:10;;;;;;;11.33;6.37;;;12.60;77.40;;;;;;5053671;28;20268;-79
2023/04/22 02:53:36;;;;;;;9.87;6.13;;;12.60;77.70;;;;;;5038698;28;20203;-78
2023/04/22 02:56:02;;;;;;;9.27;6.10;;;12.60;78.30;;;;;;5058927;28;20176;-77
2023/04/22 02:58:27;;;;;;;13.50;6.17;;;12.60;78.60;;;;;;5055803;28;20223;-78
2023/04/22 03:00:55;;;;;;;8.97;6.10;;;12.50;78.70;;;;;;5058580;28;20177;-79
2023/04/22 03:03:21;;;;;;;9.37;6.50;;;12.50;79.00;;;;;;5058143;28;20180;-78
2023/04/22 03:05:46;;;;;;;10.00;6.50;;;12.50;79.30;;;;;;5040081;28;20450;-77
2023/04/22 03:08:12;;;;;;;10.00;6.53;;;12.50;79.50;;;;;;5057889;28;20211;-78
2023/04/22 03:10:37;;;;;;;10.20;6.70;;;12.50;79.90;;;;;;5059246;28;20263;-78
2023/04/22 03:13:03;;;;;;;13.53;6.50;;;12.50;80.00;;;;;;5058896;28;20172;-78
2023/04/22 03:15:29;;;;;;;8.73;6.50;;;12.50;80.20;;;;;;5057777;28;20242;-76
2023/04/22 03:17:55;;;;;;;14.17;7.00;;;12.40;80.30;;;;;;5057880;28;20215;-78
2023/04/22 03:20:21;;;;;;;9.70;6.57;;;12.40;80.30;;;;;;5068834;28;20901;-78
2023/04/22 03:22:46;;;;;;;11.47;7.10;;;12.30;80.50;;;;;;5064777;28;20265;-78
2023/04/22 03:25:12;;;;;;;9.33;5.83;;;12.30;80.50;;;;;;5063492;28;20449;-78
2023/04/22 03:27:38;;;;;;;9.70;5.93;;;12.20;80.20;;;;;;5058956;28;20238;-79
2023/04/22 03:30:04;;;;;;;7.77;5.53;;;12.20;80.50;;;;;;5047223;28;20212;-77
2023/04/22 03:32:30;;;;;;;10.50;6.30;;;12.20;80.20;;;;;;5055321;28;20195;-77
2023/04/22 03:34:55;;;;;;;11.27;6.27;;;12.10;80.00;;;;;;5055129;28;20411;-78
2023/04/22 03:37:21;;;;;;;10.00;5.80;;;12.00;80.20;;;;;;5054442;28;20208;-79
2023/04/22 03:39:47;;;;;;;12.80;6.63;;;12.00;80.60;;;;;;5055857;28;20783;-77
2023/04/22 03:42:13;;;;;;;9.20;6.67;;;12.00;80.80;;;;;;5055908;28;20250;-78
2023/04/22 03:44:39;;;;;;;10.20;6.03;;;12.00;81.20;;;;;;5055257;28;20679;-77
2023/04/22 03:47:05;;;;;;;11.53;6.77;;;11.90;81.50;;;;;;5055289;28;21030;-79
2023/04/22 03:49:30;;;;;;;9.23;5.60;;;11.90;81.70;;;;;;5057283;28;20470;-77
2023/04/22 03:51:56;;;;;;;12.70;7.00;;;11.90;81.90;;;;;;5058547;28;20195;-77
2023/04/22 03:54:22;;;;;;;9.60;6.43;;;11.80;81.70;;;;;;5058466;28;20823;-79
2023/04/22 03:56:48;;;;;;;11.00;6.10;;;11.80;81.70;;;;;;5058386;28;20203;-78
2023/04/22 03:59:13;;;;;;;13.03;6.53;;;11.80;81.80;;;;;;5058281;28;20419;-76
2023/04/22 04:01:39;;;;;;;11.80;5.40;;;11.80;81.80;;;;;;5040439;28;20671;-77
2023/04/22 04:04:05;;;;;;;11.77;6.50;;;11.70;82.10;;;;;;5036676;28;20187;-77
2023/04/22 04:06:30;;;;;;;11.07;7.00;;;11.80;82.10;;;;;;5054820;28;20579;-78
2023/04/22 04:08:57;;;;;;;9.87;6.43;;;11.80;81.90;;;;;;5049908;28;20267;-78
2023/04/22 04:11:22;;;;;;;10.27;6.30;;;11.70;81.50;;;;;;5037437;28;20651;-77
2023/04/22 04:13:48;;;;;;;11.77;6.97;;;11.60;81.40;;;;;;5036638;28;20427;-76
2023/04/22 04:16:14;;;;;;;9.40;6.17;;;11.60;81.70;;;;;;5054634;28;20580;-78
2023/04/22 04:18:39;;;;;;;9.47;5.90;;;11.60;81.90;;;;;;5036492;28;20191;-77
2023/04/22 04:21:05;;;;;;;9.97;6.77;;;11.60;82.10;;;;;;5038297;28;20268;-78
2023/04/22 04:23:31;;;;;;;9.40;6.47;;;11.60;82.20;;;;;;5055697;28;20706;-79
2023/04/22 04:25:56;;;;;;;9.20;6.37;;;11.60;82.20;;;;;;5055698;28;20244;-77
2023/04/22 04:28:23;;;;;;;11.30;6.60;;;11.70;82.20;;;;;;5055850;28;20224;-77
2023/04/22 04:30:48;;;;;;;11.40;6.90;;;11.60;82.10;;;;;;5038042;28;20187;-77
2023/04/22 04:33:15;;;;;;;10.40;6.60;;;11.60;82.40;;;;;;5053967;28;20419;-77
2023/04/22 04:35:42;;;;;;;12.23;7.10;;;11.60;82.50;;;;;;5059771;28;20192;-77
2023/04/22 04:38:07;;;;;;;10.73;7.63;;;11.60;82.40;;;;;;5053138;28;20450;-74
2023/04/22 04:40:34;;;;;;;9.87;6.30;;;11.50;82.40;;;;;;5072896;28;20419;-77
2023/04/22 04:43:01;;;;;;;12.23;6.70;;;11.50;82.70;;;;;;5073227;28;20176;-76
2023/04/22 04:45:28;;;;;;;8.73;6.37;;;11.50;82.80;;;;;;5056500;28;20427;-77
2023/04/22 04:47:54;;;;;;;9.77;6.03;;;11.60;82.70;;;;;;5054547;28;20443;-76
2023/04/22 04:50:20;;;;;;;9.40;6.50;;;11.70;82.70;;;;;;5075641;28;20462;-77
2023/04/22 04:52:47;;;;;;;11.20;6.70;;;11.70;82.40;;;;;;5070406;28;20180;-77
2023/04/22 04:55:14;;;;;;;10.70;6.93;;;11.70;81.90;;;;;;5061885;28;20434;-77
2023/04/22 04:57:40;;;;;;;10.87;6.10;;;11.70;82.10;;;;;;5052732;28;20463;-76
2023/04/22 05:00:07;;;;;;;11.83;8.17;;;11.80;81.90;;;;;;5044481;28;20442;-77
2023/04/22 05:02:32;;;;;;;11.70;7.60;;;11.80;81.50;;;;;;5061157;28;20266;-76
2023/04/22 05:04:58;;;;;;;11.50;7.97;;;11.70;81.70;;;;;;5061451;28;20446;-78
2023/04/22 05:07:24;;;;;;;13.67;7.40;;;11.80;81.90;;;;;;5048466;28;20209;-77
2023/04/22 05:09:49;;;;;;;11.13;6.93;;;11.80;81.80;;;;;;5057459;28;20568;-77
2023/04/22 05:12:15;;;;;;;12.10;6.10;;;11.90;81.90;;;;;;5056323;28;20183;-75
2023/04/22 05:14:40;;;;;;;9.80;5.83;;;11.90;81.90;;;;;;5057620;28;20188;-77
2023/04/22 05:17:07;;;;;;;14.93;6.40;;;12.00;81.90;;;;;;5050886;28;20209;-77
2023/04/22 05:19:32;;;;;;;9.30;6.27;;;12.00;81.90;;;;;;5035495;28;20279;-77
2023/04/22 05:21:58;;;;;;;12.60;6.70;;;11.90;81.70;;;;;;5052307;28;20523;-77
2023/04/22 05:24:24;;;;;;;12.70;7.97;;;12.00;81.80;;;;;;5051339;28;20648;-77
2023/04/22 05:26:50;;;;;;;9.17;6.83;;;12.00;81.20;;;;;;5047690;28;20287;-76
2023/04/22 05:29:15;;;;;;;11.80;7.40;;;12.00;81.20;;;;;;5046228;28;21060;-77
2023/04/22 05:31:41;;;;;;;9.67;6.87;;;12.00;81.20;;;;;;5051842;28;20634;-77
2023/04/22 05:34:07;;;;;;;10.70;6.83;;;12.10;81.50;;;;;;5047067;28;20184;-77
2023/04/22 05:36:32;;;;;;;16.07;8.20;;;12.10;81.50;;;;;;5031317;28;20184;-77
2023/04/22 05:38:58;;;;;;;10.47;6.50;;;12.10;81.50;;;;;;5048688;28;20288;-75
2023/04/22 05:41:23;;;;;;;11.60;7.00;;;12.10;81.20;;;;;;5051956;28;20184;-77
2023/04/22 05:43:49;;;;;;;11.00;6.40;;;12.20;80.60;;;;;;5050291;28;20216;-77
2023/04/22 05:46:15;;;;;;;9.87;5.97;;;12.10;79.00;;;;;;5046262;28;20186;-77
2023/04/22 05:48:40;;;;;;;9.57;5.90;;;12.10;78.90;;;;;;5046594;28;20694;-77
2023/04/22 05:51:06;;;;;;;9.93;6.40;;;12.10;78.00;;;;;;5052383;28;20194;-77
2023/04/22 05:53:31;;;;;;;9.10;6.00;;;12.20;78.00;;;;;;5051232;28;20245;-76
2023/04/22 05:55:57;;;;;;;9.67;6.50;;;12.20;78.00;;;;;;5051700;28;20587;-76
2023/04/22 05:58:23;;;;;;;11.83;7.03;;;12.40;78.00;;;;;;5049639;28;20223;-77
2023/04/22 06:00:49;;;;;;;10.50;6.53;;;12.50;78.60;;;;;;5073811;28;20493;-76
2023/04/22 06:03:14;;;;;;;14.07;8.13;;;12.60;78.90;;;;;;5051988;28;20173;-76
2023/04/22 06:05:41;;;;;;;14.97;8.53;;;12.70;79.20;;;;;;5050755;28;20815;-76
2023/04/22 06:08:06;;;;;;;13.03;8.70;;;12.80;79.30;;;;;;5047641;28;20526;-75
2023/04/22 06:10:32;;;;;;;13.97;8.20;;;13.00;79.20;;;;;;5031930;28;20477;-76
2023/04/22 06:12:57;;;;;;;10.83;7.80;;;13.00;78.90;;;;;;5032975;28;20176;-75
2023/04/22 06:15:24;;;;;;;12.00;7.20;;;13.20;78.30;;;;;;5050789;28;20183;-76
2023/04/22 06:17:50;;;;;;;12.80;7.50;;;13.30;78.10;;;;;;5047466;28;20284;-79
2023/04/22 06:20:15;;;;;;;10.40;7.10;;;13.40;77.70;;;;;;5051488;28;20502;-78
2023/04/22 06:22:41;;;;;;;12.00;7.37;;;13.60;77.10;;;;;;5049432;28;20197;-78
2023/04/22 06:25:07;;;;;;;11.20;7.60;;;13.70;76.40;;;;;;5056385;28;20188;-77
2023/04/22 06:27:32;;;;;;;12.40;7.10;;;13.80;75.40;;;;;;5055280;28;20208;-78
2023/04/22 06:29:58;;;;;;;9.27;6.83;;;13.90;74.90;;;;;;5058452;28;20559;-79
2023/04/22 06:32:23;;;;;;;10.60;6.83;;;14.00;73.70;;;;;;5054476;28;20651;-78
2023/04/22 06:34:49;;;;;;;8.63;6.30;;;14.10;72.90;;;;;;5046411;28;20185;-78
2023/04/22 06:37:15;;;;;;;8.63;6.70;;;14.20;73.20;;;;;;5045395;28;20200;-77
2023/04/22 06:39:40;;;;;;;11.00;6.33;;;14.40;72.60;;;;;;5052397;28;20227;-77
2023/04/22 06:42:06;;;;;;;11.23;6.60;;;14.50;71.70;;;;;;5051351;28;20598;-78
2023/04/22 06:44:32;;;;;;;11.13;7.60;;;14.60;71.10;;;;;;5032925;28;20289;-80
2023/04/22 06:46:57;;;;;;;8.77;6.63;;;14.70;70.80;;;;;;5045899;28;20213;-78
2023/04/22 06:49:23;;;;;;;17.80;8.67;;;14.80;70.70;;;;;;5050404;28;20687;-76
2023/04/22 06:51:48;;;;;;;10.30;6.60;;;14.90;70.70;;;;;;5048777;28;20185;-73
2023/04/22 06:54:14;;;;;;;10.87;7.37;;;14.90;70.40;;;;;;5050524;28;20265;-74
2023/04/22 06:56:40;;;;;;;13.90;7.87;;;14.90;70.70;;;;;;5047425;28;20973;-74
2023/04/22 06:59:06;;;;;;;14.90;8.70;;;14.90;71.40;;;;;;5050238;28;20435;-75
2023/04/22 07:01:32;;;;;;;12.63;8.67;;;14.90;71.80;;;;;;5051113;28;20181;-75
2023/04/22 07:03:58;;;;;;;20.00;10.33;;;14.80;72.30;;;;;;5050289;28;20439;-75
2023/04/22 07:06:23;;;;;;;14.40;8.63;;;14.90;72.40;;;;;;5032400;28;20424;-74
2023/04/22 07:08:49;;;;;;;13.00;8.40;;;15.00;71.70;;;;;;5049215;28;20299;-74
2023/04/22 07:11:15;;;;;;;15.70;8.60;;;15.10;71.60;;;;;;5047416;28;20561;-74
2023/04/22 07:13:40;;;;;;;14.97;8.70;;;15.20;71.10;;;;;;5050467;28;20197;-73
2023/04/22 07:16:06;;;;;;;13.93;8.30;;;15.20;71.10;;;;;;5050836;28;20688;-75
2023/04/22 07:18:34;;;;;;;14.17;8.73;;;15.20;70.80;;;;;;5031924;28;20708;-75
2023/04/22 07:20:59;;;;;;;17.57;9.17;;;15.20;71.00;;;;;;5049931;28;20272;-73
2023/04/22 07:23:25;;;;;;;14.13;8.70;;;15.30;71.10;;;;;;5055719;28;20490;-76
2023/04/22 07:25:52;;;;;;;15.00;9.00;;;15.50;70.80;;;;;;5056798;28;20201;-74
2023/04/22 07:28:17;;;;;;;17.17;9.00;;;15.60;70.50;;;;;;5050471;28;20705;-74
2023/04/22 07:30:43;;;;;;;16.60;7.53;;;15.70;70.70;;;;;;5036915;28;20496;-76
2023/04/22 07:33:09;;;;;;;11.07;7.30;;;15.90;70.80;;;;;;5032037;28;20180;-76
2023/04/22 07:35:35;;;;;;;13.33;7.87;;;16.10;69.50;;;;;;5049587;28;20185;-75
2023/04/22 07:38:00;;;;;;;13.33;8.33;;;16.30;68.80;;;;;;5049085;28;20233;-76
2023/04/22 07:40:26;;;;;;;13.53;8.30;;;16.40;68.30;;;;;;5035843;28;20481;-76
2023/04/22 07:42:51;;;;;;;17.87;7.77;;;16.60;67.90;;;;;;5051679;28;20200;-74
2023/04/22 07:45:18;;;;;;;10.83;7.10;;;16.50;67.70;;;;;;5054098;28;20565;-76
2023/04/22 07:47:44;;;;;;;10.27;7.27;;;16.50;67.70;;;;;;5050253;28;20209;-74
2023/04/22 07:50:10;;;;;;;10.77;7.10;;;16.60;67.60;;;;;;5058355;28;20458;-76
2023/04/22 07:52:35;;;;;;;10.13;7.43;;;16.70;67.70;;;;;;5056589;28;20188;-76
2023/04/22 07:55:01;;;;;;;10.67;7.40;;;16.80;67.30;;;;;;5055706;28;20792;-76
2023/04/22 07:57:27;;;;;;;11.87;7.00;;;17.00;67.20;;;;;;5051212;28;20306;-78
2023/04/22 07:59:52;;;;;;;9.30;6.00;;;17.10;66.60;;;;;;5038649;28;20184;-76
2023/04/22 08:02:18;;;;;;;10.53;5.73;;;17.10;66.90;;;;;;5049770;28;20196;-77
2023/04/22 08:04:43;;;;;;;7.67;4.37;;;17.30;66.60;;;;;;5054599;28;20196;-77
2023/04/22 08:07:09;;;;;;;5.97;4.60;;;17.00;65.30;;;;;;5035516;28;20205;-78
2023/04/22 08:09:35;;;;;;;18.97;4.33;;;16.80;66.10;;;;;;5050090;28;20212;-77
2023/04/22 08:12:01;;;;;;;5.23;4.10;;;16.70;66.90;;;;;;5044239;28;20260;-77
2023/04/22 08:14:27;;;;;;;5.00;4.03;;;16.70;67.30;;;;;;5050501;28;20186;-77
2023/04/22 08:16:53;;;;;;;5.57;4.53;;;16.60;67.70;;;;;;5048676;28;20482;-77
2023/04/22 08:19:19;;;;;;;5.43;3.70;;;16.70;67.90;;;;;;5053867;28;20203;-77
2023/04/22 08:21:45;;;;;;;3.77;3.27;;;16.80;67.90;;;;;;5053305;28;20428;-77
2023/04/22 08:24:11;;;;;;;5.73;4.10;;;16.90;67.50;;;;;;5047906;28;20508;-77
2023/04/22 08:26:38;;;;;;;6.23;4.07;;;17.00;66.70;;;;;;5050225;28;20525;-76
2023/04/22 08:29:04;;;;;;;4.43;3.33;;;16.90;66.40;;;;;;5051690;28;20689;-76
2023/04/22 08:31:30;;;;;;;7.33;3.90;;;16.90;66.10;;;;;;5052958;28;20428;-77
2023/04/22 08:33:56;;;;;;;4.20;2.90;;;16.80;66.00;;;;;;5053700;28;20417;-76
2023/04/22 08:36:24;;;;;;;4.77;3.23;;;16.80;66.00;;;;;;5052849;28;20180;-77
2023/04/22 08:38:50;;;;;;;7.77;3.43;;;17.00;65.80;;;;;;5034980;28;20218;-77
2023/04/22 08:41:18;;;;;;;4.20;3.30;;;17.10;65.10;;;;;;5053927;28;20447;-77
2023/04/22 08:43:44;;;;;;;4.50;2.90;;;17.20;65.30;;;;;;5060120;28;20230;-76
2023/04/22 08:46:10;;;;;;;4.57;2.97;;;17.10;64.40;;;;;;5041434;28;20430;-76
2023/04/22 08:48:36;;;;;;;4.80;3.40;;;17.30;64.50;;;;;;5054752;28;20462;-77
2023/04/22 08:51:03;;;;;;;4.73;3.10;;;17.40;63.80;;;;;;5058227;28;20500;-77
2023/04/22 08:53:29;;;;;;;4.83;2.90;;;17.50;62.90;;;;;;5050128;28;20411;-77
2023/04/22 08:55:56;;;;;;;7.10;3.07;;;17.70;62.50;;;;;;5049830;28;20406;-77
2023/04/22 08:58:22;;;;;;;4.60;3.27;;;17.70;62.00;;;;;;5050240;28;20509;-77
2023/04/22 09:00:49;;;;;;;3.80;2.87;;;17.70;62.30;;;;;;5053095;28;20411;-77
2023/04/22 09:03:15;;;;;;;3.93;2.97;;;17.90;61.60;;;;;;5052879;28;20414;-77
2023/04/22 09:05:42;;;;;;;5.40;2.77;;;17.90;61.60;;;;;;5047343;28;20429;-77
2023/04/22 09:08:09;;;;;;;3.70;2.97;;;18.00;61.00;;;;;;5046519;28;20459;-77
2023/04/22 09:10:38;;;;;;;6.50;3.20;;;18.20;59.90;;;;;;5047922;28;20426;-77
2023/04/22 09:13:05;;;;;;;4.50;2.60;;;18.40;59.60;;;;;;5053002;28;20416;-76
2023/04/22 09:15:32;;;;;;;4.00;3.03;;;18.60;58.00;;;;;;5053582;28;20445;-77
2023/04/22 09:17:57;;;;;;;4.73;2.80;;;18.70;58.40;;;;;;5046128;28;20447;-77
2023/04/22 09:20:28;;;;;;;4.30;3.00;;;19.00;58.40;;;;;;5051667;28;20425;-77
2023/04/22 09:22:55;;;;;;;4.53;2.87;;;19.40;56.10;;;;;;5050449;28;20195;-77
2023/04/22 09:25:23;;;;;;;6.40;3.40;;;19.50;56.20;;;;;;5052367;28;20430;-77
2023/04/22 09:27:57;;;;;;;4.57;2.90;;;19.50;56.40;;;;;;5046642;28;20469;-77
2023/04/22 09:30:23;;;;;;;5.70;2.70;;;19.60;55.60;;;;;;5033775;28;20812;-76
2023/04/22 09:32:57;;;;;;;5.07;3.10;;;19.80;55.30;;;;;;5052047;28;20411;-76
2023/04/22 09:35:30;;;;;;;4.53;3.00;;;19.90;55.00;;;;;;5051453;28;20426;-77
2023/04/22 09:37:58;;;;;;;4.40;2.80;;;20.00;54.40;;;;;;5047933;28;20455;-76
2023/04/22 09:40:24;;;;;;;3.23;2.30;;;20.00;53.60;;;;;;5051584;28;20890;-76
2023/04/22 09:42:52;;;;;;;3.60;2.43;;;20.10;53.40;;;;;;5052336;28;20805;-77
2023/04/22 09:45:32;;;;;;;5.03;2.83;;;20.20;54.10;;;;;;5052701;28;20430;-76
2023/04/22 09:48:14;;;;;;;4.70;2.80;;;20.20;54.50;;;;;;5047368;28;20538;-78
2023/04/22 09:50:43;;;;;;;2.47;2.13;;;20.40;54.20;;;;;;5052613;28;20906;-76
2023/04/22 09:53:11;;;;;;;4.17;2.50;;;20.30;52.90;;;;;;5052214;28;20399;-77
2023/04/22 09:55:40;;;;;;;3.67;2.80;;;20.30;52.80;;;;;;5034416;28;20443;-77
2023/04/22 09:58:08;;;;;;;3.23;3.00;;;20.30;52.80;;;;;;5053958;28;20448;-76
2023/04/22 10:00:38;;;;;;;3.17;2.63;;;20.30;52.90;;;;;;5054240;28;20496;-77
2023/04/22 10:03:05;;;;;;;3.27;2.67;;;20.40;53.20;;;;;;5056059;28;20416;-76
2023/04/22 10:05:32;;;;;;;6.00;3.03;;;20.30;52.60;;;;;;5053509;28;20850;-77
2023/04/22 10:07:58;;;;;;;4.53;2.40;;;20.30;52.60;;;;;;5054606;28;20462;-77
2023/04/22 10:10:23;;;;;;;4.60;2.67;;;20.50;52.20;;;;;;5055570;28;20459;-77
2023/04/22 10:12:50;;;;;;;4.93;2.60;;;20.50;52.60;;;;;;5055164;28;20194;-75
2023/04/22 10:15:15;;;;;;;4.43;2.60;;;20.70;51.80;;;;;;5053491;28;20235;-75
2023/04/22 10:17:43;;;;;;;6.10;2.47;;;20.70;52.40;;;;;;5052468;28;20463;-77
2023/04/22 10:20:14;;;;;;;9.73;2.50;;;20.80;51.70;;;;;;5051842;28;20275;-77
2023/04/22 10:22:41;;;;;;;5.20;3.03;;;21.00;51.60;;;;;;5053015;28;20595;-78
2023/04/22 10:25:11;;;;;;;4.80;2.87;;;21.20;51.00;;;;;;5055835;28;20418;-77
2023/04/22 10:27:38;;;;;;;3.57;2.40;;;21.50;50.50;;;;;;5059405;28;20462;-76
2023/04/22 10:30:05;;;;;;;2.70;2.30;;;21.60;48.10;;;;;;5069599;28;20533;-76
2023/04/22 10:32:32;;;;;;;4.20;2.77;;;21.70;46.10;;;;;;5071709;28;20486;-77
2023/04/22 10:35:09;;;;;;;5.87;2.53;;;21.80;45.40;;;;;;5066645;28;20425;-75
2023/04/22 10:37:35;;;;;;;3.70;1.80;;;21.90;45.50;;;;;;5056416;28;20486;-72
2023/04/22 10:40:08;;;;;;;4.80;2.20;;;22.10;40.30;;;;;;5058312;28;20419;-74
2023/04/22 10:42:34;;;;;;;5.30;1.90;;;22.30;41.00;;;;;;5048662;28;20216;-75
2023/04/22 10:45:02;;;;;;;2.90;2.13;;;22.50;41.10;;;;;;5062456;28;20426;-74
2023/04/22 10:47:33;;;;;;;3.33;2.50;;;22.80;42.30;;;;;;5040952;28;20583;-75
2023/04/22 10:50:18;;;;;;;2.87;1.90;;;22.90;42.00;;;;;;5045094;28;20470;-75
2023/04/22 10:53:09;;;;;;;2.97;2.30;;;23.30;40.60;;;;;;5050800;28;20413;-76
2023/04/22 10:55:50;;;;;;;5.43;2.60;;;23.90;39.80;;;;;;5003779;28;20437;-77
2023/04/22 10:58:20;;;;;;;4.37;2.50;;;24.30;35.90;;;;;;5051218;28;20457;-76
2023/04/22 11:00:51;;;;;;;2.83;2.20;;;24.20;36.70;;;;;;5052080;28;20474;-75
2023/04/22 11:03:17;;;;;;;3.80;2.33;;;24.40;35.90;;;;;;5052120;28;20419;-77
2023/04/22 11:05:44;;;;;;;6.53;2.77;;;24.30;36.60;;;;;;5051725;28;20441;-76
2023/04/22 11:08:20;;;;;;;2.90;2.20;;;24.30;35.20;;;;;;5050462;28;20451;-76
2023/04/22 11:10:48;;;;;;;4.10;2.60;;;24.40;35.20;;;;;;5051159;28;20440;-76
2023/04/22 11:13:20;;;;;;;3.13;2.47;;;24.40;36.00;;;;;;5052375;28;20785;-76
2023/04/22 11:15:52;;;;;;;4.80;2.47;;;24.40;36.40;;;;;;5056247;28;20419;-76
2023/04/22 11:18:25;;;;;;;3.83;2.30;;;24.30;35.90;;;;;;5049430;28;20457;-77
2023/04/22 11:20:52;;;;;;;4.50;2.97;;;24.60;37.00;;;;;;5047910;28;20438;-77
2023/04/22 11:23:21;;;;;;;2.90;2.43;;;24.50;37.60;;;;;;5056025;28;20417;-75
2023/04/22 11:25:46;;;;;;;4.40;2.60;;;24.40;38.00;;;;;;5061328;28;20422;-76
2023/04/22 11:28:12;;;;;;;5.10;2.60;;;24.10;38.40;;;;;;5055414;28;20465;-76
2023/04/22 11:30:38;;;;;;;4.00;2.40;;;24.10;38.00;;;;;;5055604;28;20181;-78
2023/04/22 11:33:03;;;;;;;9.13;3.27;;;24.50;37.90;;;;;;5037552;28;20182;-77
2023/04/22 11:35:32;;;;;;;4.30;2.80;;;24.70;35.50;;;;;;5057531;28;20325;-81
2023/04/22 11:38:04;;;;;;;4.27;2.40;;;24.40;35.10;;;;;;5041584;28;20215;-76
2023/04/22 11:40:38;;;;;;;3.07;2.30;;;24.50;35.50;;;;;;5056183;28;20776;-76
2023/04/22 11:43:06;;;;;;;3.50;2.27;;;24.70;35.10;;;;;;5057099;28;20539;-75
2023/04/22 11:45:35;;;;;;;5.10;2.43;;;24.90;36.70;;;;;;5060700;28;20415;-77
2023/04/22 11:48:03;;;;;;;4.37;2.53;;;24.70;34.80;;;;;;5060289;28;20477;-77
2023/04/22 11:50:31;;;;;;;5.83;2.17;;;24.70;33.90;;;;;;5042745;28;20499;-76
2023/04/22 11:53:02;;;;;;;2.77;2.27;;;24.90;33.90;;;;;;5055866;28;20408;-76
2023/04/22 11:55:30;;;;;;;2.80;2.27;;;25.10;33.50;;;;;;5055377;28;20444;-76
2023/04/22 11:58:16;;;;;;;5.93;2.47;;;25.30;33.20;;;;;;5052880;28;20488;-76
2023/04/22 12:00:46;;;;;;;8.27;3.27;;;25.60;32.90;;;;;;5054553;28;20424;-76
2023/04/22 12:03:13;;;;;;;5.50;2.63;;;25.50;33.60;;;;;;5055510;28;20422;-76
2023/04/22 12:05:51;;;;;;;3.77;2.63;;;25.20;33.70;;;;;;5053990;28;20429;-75
2023/04/22 12:08:19;;;;;;;5.83;2.60;;;24.70;34.40;;;;;;5036323;28;20471;-77
2023/04/22 12:10:51;;;;;;;3.70;2.20;;;24.70;35.20;;;;;;5055351;28;20512;-76
2023/04/22 12:13:22;;;;;;;5.00;2.70;;;24.80;34.90;;;;;;5055584;28;20415;-76
2023/04/22 12:15:52;;;;;;;4.97;2.77;;;24.40;35.70;;;;;;5047164;28;20423;-75
2023/04/22 12:18:37;;;;;;;4.10;2.60;;;24.40;36.40;;;;;;5048313;28;20816;-76
2023/04/22 12:21:03;;;;;;;5.27;3.43;;;24.40;36.30;;;;;;5049990;28;20413;-75
2023/04/22 12:23:29;;;;;;;8.23;3.50;;;24.10;36.80;;;;;;5054860;28;21111;-76
2023/04/22 12:25:54;;;;;;;9.43;3.30;;;23.80;37.90;;;;;;5053950;28;20206;-73
2023/04/22 12:28:20;;;;;;;3.80;3.03;;;23.50;39.20;;;;;;5050764;28;20281;-75
2023/04/22 12:30:46;;;;;;;5.90;2.90;;;23.40;39.50;;;;;;5051740;28;20654;-76
2023/04/22 12:33:11;;;;;;;4.57;2.70;;;23.60;39.60;;;;;;5053404;28;20202;-75
2023/04/22 12:35:37;;;;;;;4.43;2.97;;;23.70;39.10;;;;;;5051845;28;20268;-75
2023/04/22 12:38:02;;;;;;;5.33;2.83;;;23.70;39.50;;;;;;5047255;28;20775;-77
2023/04/22 12:40:28;;;;;;;4.53;2.73;;;23.90;39.00;;;;;;5050929;28;20705;-76